sensor_id;sensor_type;location;lat;lon;timestamp;P1;durP1;ratioP1;P2;durP2;ratioP2
297;SDS011;133;49.626;9.680;2023-02-26T00:02:22;3.13;;;2.90;;
297;SDS011;133;49.626;9.680;2023-02-26T00:04:48;4.70;;;3.00;;
297;SDS011;133;49.626;9.680;2023-02-26T00:07:14;3.10;;;2.90;;
297;SDS011;133;49.626;9.680;2023-02-26T00:09:39;5.37;;;3.20;;
297;SDS011;133;49.626;9.680;2023-02-26T00:12:05;2.83;;;2.63;;
297;SDS011;133;49.626;9.680;2023-02-26T00:14:31;5.13;;;2.60;;
297;SDS011;133;49.626;9.680;2023-02-26T00:20:08;3.70;;;3.00;;
297;SDS011;133;49.626;9.680;2023-02-26T00:22:36;2.80;;;2.60;;
297;SDS011;133;49.626;9.680;2023-02-26T00:25:03;4.83;;;3.17;;
297;SDS011;133;49.626;9.680;2023-02-26T00:27:28;4.70;;;3.50;;
297;SDS011;133;49.626;9.680;2023-02-26T00:29:54;4.90;;;3.40;;
297;SDS011;133;49.626;9.680;2023-02-26T00:32:20;4.07;;;3.30;;
297;SDS011;133;49.626;9.680;2023-02-26T00:34:46;3.50;;;2.70;;
297;SDS011;133;49.626;9.680;2023-02-26T00:39:55;5.33;;;2.60;;
297;SDS011;133;49.626;9.680;2023-02-26T00:42:39;3.20;;;2.60;;
297;SDS011;133;49.626;9.680;2023-02-26T00:45:05;3.10;;;2.73;;
297;SDS011;133;49.626;9.680;2023-02-26T00:55:05;4.10;;;3.53;;
297;SDS011;133;49.626;9.680;2023-02-26T00:57:31;5.10;;;3.73;;
297;SDS011;133;49.626;9.680;2023-02-26T00:59:56;5.43;;;3.20;;
297;SDS011;133;49.626;9.680;2023-02-26T01:02:22;4.50;;;3.23;;
297;SDS011;133;49.626;9.680;2023-02-26T01:04:48;3.20;;;2.87;;
297;SDS011;133;49.626;9.680;2023-02-26T01:07:14;4.07;;;3.20;;
297;SDS011;133;49.626;9.680;2023-02-26T01:09:43;2.90;;;2.73;;
297;SDS011;133;49.626;9.680;2023-02-26T01:12:10;3.10;;;2.90;;
297;SDS011;133;49.626;9.680;2023-02-26T01:14:41;7.40;;;3.43;;
297;SDS011;133;49.626;9.680;2023-02-26T01:17:22;4.37;;;3.77;;
297;SDS011;133;49.626;9.680;2023-02-26T01:22:29;6.57;;;3.20;;
297;SDS011;133;49.626;9.680;2023-02-26T01:25:13;3.50;;;3.30;;
297;SDS011;133;49.626;9.680;2023-02-26T01:27:43;3.87;;;2.97;;
297;SDS011;133;49.626;9.680;2023-02-26T01:30:09;4.23;;;2.93;;
297;SDS011;133;49.626;9.680;2023-02-26T01:32:46;4.97;;;3.60;;
297;SDS011;133;49.626;9.680;2023-02-26T01:37:52;3.63;;;3.13;;
297;SDS011;133;49.626;9.680;2023-02-26T01:43:26;3.40;;;2.63;;
297;SDS011;133;49.626;9.680;2023-02-26T01:46:04;5.03;;;3.00;;
297;SDS011;133;49.626;9.680;2023-02-26T01:48:50;4.20;;;3.00;;
297;SDS011;133;49.626;9.680;2023-02-26T01:54:05;2.93;;;2.57;;
297;SDS011;133;49.626;9.680;2023-02-26T01:56:31;3.10;;;2.80;;
297;SDS011;133;49.626;9.680;2023-02-26T01:58:57;3.00;;;2.83;;
297;SDS011;133;49.626;9.680;2023-02-26T02:01:23;4.37;;;2.70;;
297;SDS011;133;49.626;9.680;2023-02-26T02:03:49;3.53;;;2.77;;
297;SDS011;133;49.626;9.680;2023-02-26T02:06:19;2.90;;;2.70;;
297;SDS011;133;49.626;9.680;2023-02-26T02:08:48;3.27;;;3.07;;
297;SDS011;133;49.626;9.680;2023-02-26T02:11:14;4.23;;;2.53;;
297;SDS011;133;49.626;9.680;2023-02-26T02:13:47;4.50;;;3.37;;
297;SDS011;133;49.626;9.680;2023-02-26T02:16:47;3.30;;;2.70;;
297;SDS011;133;49.626;9.680;2023-02-26T02:33:14;4.03;;;3.00;;
297;SDS011;133;49.626;9.680;2023-02-26T02:35:44;4.10;;;3.10;;
297;SDS011;133;49.626;9.680;2023-02-26T02:38:25;8.03;;;2.93;;
297;SDS011;133;49.626;9.680;2023-02-26T02:41:02;2.80;;;2.60;;
297;SDS011;133;49.626;9.680;2023-02-26T02:43:39;7.73;;;2.67;;
297;SDS011;133;49.626;9.680;2023-02-26T02:46:12;5.13;;;2.50;;
297;SDS011;133;49.626;9.680;2023-02-26T02:48:47;3.80;;;2.43;;
297;SDS011;133;49.626;9.680;2023-02-26T02:51:30;3.47;;;2.83;;
297;SDS011;133;49.626;9.680;2023-02-26T02:54:25;4.73;;;2.60;;
297;SDS011;133;49.626;9.680;2023-02-26T02:57:08;5.33;;;2.63;;
297;SDS011;133;49.626;9.680;2023-02-26T02:59:44;3.60;;;2.90;;
297;SDS011;133;49.626;9.680;2023-02-26T03:04:59;5.83;;;2.90;;
297;SDS011;133;49.626;9.680;2023-02-26T03:07:25;4.13;;;2.70;;
297;SDS011;133;49.626;9.680;2023-02-26T03:09:50;4.10;;;2.93;;
297;SDS011;133;49.626;9.680;2023-02-26T03:12:16;7.80;;;2.70;;
297;SDS011;133;49.626;9.680;2023-02-26T03:14:42;3.37;;;2.67;;
297;SDS011;133;49.626;9.680;2023-02-26T03:20:29;6.10;;;2.90;;
297;SDS011;133;49.626;9.680;2023-02-26T03:23:10;5.03;;;2.63;;
297;SDS011;133;49.626;9.680;2023-02-26T03:25:52;4.27;;;3.10;;
297;SDS011;133;49.626;9.680;2023-02-26T03:28:25;8.43;;;4.43;;
297;SDS011;133;49.626;9.680;2023-02-26T03:31:00;11.00;;;5.50;;
297;SDS011;133;49.626;9.680;2023-02-26T03:33:37;15.73;;;6.17;;
297;SDS011;133;49.626;9.680;2023-02-26T03:38:51;26.17;;;8.20;;
297;SDS011;133;49.626;9.680;2023-02-26T03:41:24;20.33;;;7.37;;
297;SDS011;133;49.626;9.680;2023-02-26T03:44:07;13.40;;;5.17;;
297;SDS011;133;49.626;9.680;2023-02-26T03:46:38;4.70;;;3.23;;
297;SDS011;133;49.626;9.680;2023-02-26T03:49:13;6.57;;;3.65;;
297;SDS011;133;49.626;9.680;2023-02-26T03:51:44;3.10;;;2.90;;
297;SDS011;133;49.626;9.680;2023-02-26T03:54:20;5.50;;;2.83;;
297;SDS011;133;49.626;9.680;2023-02-26T03:56:50;3.40;;;3.20;;
297;SDS011;133;49.626;9.680;2023-02-26T03:59:16;7.23;;;2.80;;
297;SDS011;133;49.626;9.680;2023-02-26T04:04:33;3.20;;;2.83;;
297;SDS011;133;49.626;9.680;2023-02-26T04:07:06;6.37;;;2.63;;
297;SDS011;133;49.626;9.680;2023-02-26T04:09:36;7.53;;;3.00;;
297;SDS011;133;49.626;9.680;2023-02-26T04:12:01;3.57;;;3.10;;
297;SDS011;133;49.626;9.680;2023-02-26T04:14:27;6.97;;;3.13;;
297;SDS011;133;49.626;9.680;2023-02-26T04:16:53;3.20;;;2.67;;
297;SDS011;133;49.626;9.680;2023-02-26T04:19:18;5.07;;;2.43;;
297;SDS011;133;49.626;9.680;2023-02-26T04:21:44;3.23;;;2.47;;
297;SDS011;133;49.626;9.680;2023-02-26T04:24:10;3.87;;;3.00;;
297;SDS011;133;49.626;9.680;2023-02-26T04:26:36;6.27;;;3.70;;
297;SDS011;133;49.626;9.680;2023-02-26T04:29:01;7.67;;;4.40;;
297;SDS011;133;49.626;9.680;2023-02-26T04:31:27;7.07;;;3.70;;
297;SDS011;133;49.626;9.680;2023-02-26T04:33:52;7.80;;;4.47;;
297;SDS011;133;49.626;9.680;2023-02-26T04:36:18;9.30;;;4.20;;
297;SDS011;133;49.626;9.680;2023-02-26T04:38:44;5.60;;;2.77;;
297;SDS011;133;49.626;9.680;2023-02-26T04:41:09;6.17;;;2.77;;
297;SDS011;133;49.626;9.680;2023-02-26T04:43:35;4.00;;;2.33;;
297;SDS011;133;49.626;9.680;2023-02-26T04:46:01;3.07;;;2.33;;
297;SDS011;133;49.626;9.680;2023-02-26T04:48:27;5.60;;;2.60;;
297;SDS011;133;49.626;9.680;2023-02-26T04:50:53;3.10;;;2.40;;
297;SDS011;133;49.626;9.680;2023-02-26T04:53:19;2.47;;;2.17;;
297;SDS011;133;49.626;9.680;2023-02-26T04:55:46;5.33;;;2.37;;
297;SDS011;133;49.626;9.680;2023-02-26T04:58:12;2.43;;;2.23;;
297;SDS011;133;49.626;9.680;2023-02-26T05:00:38;2.60;;;2.40;;
297;SDS011;133;49.626;9.680;2023-02-26T05:03:04;2.40;;;2.20;;
297;SDS011;133;49.626;9.680;2023-02-26T05:05:30;2.80;;;2.60;;
297;SDS011;133;49.626;9.680;2023-02-26T05:07:56;2.30;;;2.17;;
297;SDS011;133;49.626;9.680;2023-02-26T05:10:22;2.50;;;2.30;;
297;SDS011;133;49.626;9.680;2023-02-26T05:12:48;2.90;;;2.70;;
297;SDS011;133;49.626;9.680;2023-02-26T05:15:14;2.90;;;2.10;;
297;SDS011;133;49.626;9.680;2023-02-26T05:17:39;4.80;;;2.17;;
297;SDS011;133;49.626;9.680;2023-02-26T05:20:05;2.17;;;2.00;;
297;SDS011;133;49.626;9.680;2023-02-26T05:22:34;2.33;;;2.15;;
297;SDS011;133;49.626;9.680;2023-02-26T05:25:01;4.87;;;2.60;;
297;SDS011;133;49.626;9.680;2023-02-26T05:27:26;5.13;;;2.37;;
297;SDS011;133;49.626;9.680;2023-02-26T05:29:52;6.43;;;2.87;;
297;SDS011;133;49.626;9.680;2023-02-26T05:32:17;3.10;;;2.30;;
297;SDS011;133;49.626;9.680;2023-02-26T05:34:43;3.43;;;2.30;;
297;SDS011;133;49.626;9.680;2023-02-26T05:37:09;2.50;;;2.30;;
297;SDS011;133;49.626;9.680;2023-02-26T05:39:34;5.53;;;3.00;;
297;SDS011;133;49.626;9.680;2023-02-26T05:42:00;2.80;;;2.60;;
297;SDS011;133;49.626;9.680;2023-02-26T05:44:26;4.23;;;2.53;;
297;SDS011;133;49.626;9.680;2023-02-26T05:46:52;2.90;;;2.37;;
297;SDS011;133;49.626;9.680;2023-02-26T05:49:18;2.20;;;2.00;;
297;SDS011;133;49.626;9.680;2023-02-26T05:51:44;3.93;;;2.33;;
297;SDS011;133;49.626;9.680;2023-02-26T05:54:09;2.50;;;2.30;;
297;SDS011;133;49.626;9.680;2023-02-26T05:56:35;8.23;;;2.20;;
297;SDS011;133;49.626;9.680;2023-02-26T05:59:01;2.77;;;2.37;;
297;SDS011;133;49.626;9.680;2023-02-26T06:01:27;7.03;;;2.43;;
297;SDS011;133;49.626;9.680;2023-02-26T06:03:53;2.97;;;2.00;;
297;SDS011;133;49.626;9.680;2023-02-26T06:06:19;3.07;;;2.03;;
297;SDS011;133;49.626;9.680;2023-02-26T06:08:45;4.10;;;2.10;;
297;SDS011;133;49.626;9.680;2023-02-26T06:11:11;3.03;;;1.90;;
297;SDS011;133;49.626;9.680;2023-02-26T06:13:37;2.70;;;1.90;;
297;SDS011;133;49.626;9.680;2023-02-26T06:16:03;2.63;;;2.43;;
297;SDS011;133;49.626;9.680;2023-02-26T06:18:29;5.63;;;2.10;;
297;SDS011;133;49.626;9.680;2023-02-26T06:20:56;4.20;;;2.43;;
297;SDS011;133;49.626;9.680;2023-02-26T06:23:22;3.03;;;2.87;;
297;SDS011;133;49.626;9.680;2023-02-26T06:25:49;3.83;;;2.67;;
297;SDS011;133;49.626;9.680;2023-02-26T06:28:16;6.80;;;2.30;;
297;SDS011;133;49.626;9.680;2023-02-26T06:30:42;6.07;;;2.67;;
297;SDS011;133;49.626;9.680;2023-02-26T06:33:08;3.87;;;2.40;;
297;SDS011;133;49.626;9.680;2023-02-26T06:35:35;3.20;;;2.30;;
297;SDS011;133;49.626;9.680;2023-02-26T06:38:01;5.23;;;4.03;;
297;SDS011;133;49.626;9.680;2023-02-26T06:40:27;3.00;;;2.37;;
297;SDS011;133;49.626;9.680;2023-02-26T06:42:54;4.40;;;2.30;;
297;SDS011;133;49.626;9.680;2023-02-26T06:45:21;2.70;;;2.30;;
297;SDS011;133;49.626;9.680;2023-02-26T06:47:49;4.47;;;2.90;;
297;SDS011;133;49.626;9.680;2023-02-26T06:50:15;6.27;;;3.07;;
297;SDS011;133;49.626;9.680;2023-02-26T06:52:41;2.47;;;2.27;;
297;SDS011;133;49.626;9.680;2023-02-26T06:55:06;2.50;;;2.30;;
297;SDS011;133;49.626;9.680;2023-02-26T06:57:32;2.20;;;2.00;;
297;SDS011;133;49.626;9.680;2023-02-26T06:59:58;5.70;;;2.80;;
297;SDS011;133;49.626;9.680;2023-02-26T07:02:24;3.40;;;2.20;;
297;SDS011;133;49.626;9.680;2023-02-26T07:04:50;2.67;;;2.47;;
297;SDS011;133;49.626;9.680;2023-02-26T07:07:16;2.60;;;2.40;;
297;SDS011;133;49.626;9.680;2023-02-26T07:09:43;2.77;;;2.17;;
297;SDS011;133;49.626;9.680;2023-02-26T07:12:09;5.30;;;2.30;;
297;SDS011;133;49.626;9.680;2023-02-26T07:14:35;2.30;;;2.10;;
297;SDS011;133;49.626;9.680;2023-02-26T07:17:01;3.83;;;2.40;;
297;SDS011;133;49.626;9.680;2023-02-26T07:19:27;2.00;;;1.90;;
297;SDS011;133;49.626;9.680;2023-02-26T07:21:52;5.03;;;2.27;;
297;SDS011;133;49.626;9.680;2023-02-26T07:24:20;2.60;;;2.40;;
297;SDS011;133;49.626;9.680;2023-02-26T07:26:46;2.97;;;1.97;;
297;SDS011;133;49.626;9.680;2023-02-26T07:29:11;2.70;;;1.80;;
297;SDS011;133;49.626;9.680;2023-02-26T07:31:38;3.33;;;2.30;;
297;SDS011;133;49.626;9.680;2023-02-26T07:34:03;4.73;;;2.63;;
297;SDS011;133;49.626;9.680;2023-02-26T07:36:29;2.40;;;2.20;;
297;SDS011;133;49.626;9.680;2023-02-26T07:38:55;3.20;;;2.20;;
297;SDS011;133;49.626;9.680;2023-02-26T07:41:20;2.30;;;2.10;;
297;SDS011;133;49.626;9.680;2023-02-26T07:43:46;2.30;;;2.10;;
297;SDS011;133;49.626;9.680;2023-02-26T07:46:12;2.10;;;1.90;;
297;SDS011;133;49.626;9.680;2023-02-26T07:48:37;3.63;;;1.90;;
297;SDS011;133;49.626;9.680;2023-02-26T07:51:03;1.83;;;1.77;;
297;SDS011;133;49.626;9.680;2023-02-26T07:53:31;2.90;;;2.00;;
297;SDS011;133;49.626;9.680;2023-02-26T07:55:56;2.80;;;2.00;;
297;SDS011;133;49.626;9.680;2023-02-26T07:58:22;3.33;;;2.23;;
297;SDS011;133;49.626;9.680;2023-02-26T08:00:48;1.93;;;1.83;;
297;SDS011;133;49.626;9.680;2023-02-26T08:03:13;1.63;;;1.57;;
297;SDS011;133;49.626;9.680;2023-02-26T08:05:39;1.77;;;1.70;;
297;SDS011;133;49.626;9.680;2023-02-26T08:08:05;2.20;;;2.03;;
297;SDS011;133;49.626;9.680;2023-02-26T08:10:30;2.50;;;1.83;;
297;SDS011;133;49.626;9.680;2023-02-26T08:12:56;2.40;;;2.20;;
297;SDS011;133;49.626;9.680;2023-02-26T08:15:22;2.13;;;1.97;;
297;SDS011;133;49.626;9.680;2023-02-26T08:17:50;1.80;;;1.70;;
297;SDS011;133;49.626;9.680;2023-02-26T08:20:16;3.60;;;2.23;;
297;SDS011;133;49.626;9.680;2023-02-26T08:22:42;2.90;;;2.03;;
297;SDS011;133;49.626;9.680;2023-02-26T08:25:08;6.17;;;1.80;;
297;SDS011;133;49.626;9.680;2023-02-26T08:27:33;2.10;;;1.70;;
297;SDS011;133;49.626;9.680;2023-02-26T08:29:59;2.20;;;2.00;;
297;SDS011;133;49.626;9.680;2023-02-26T08:32:25;2.90;;;2.00;;
297;SDS011;133;49.626;9.680;2023-02-26T08:34:52;1.97;;;1.80;;
297;SDS011;133;49.626;9.680;2023-02-26T08:37:17;2.27;;;2.03;;
297;SDS011;133;49.626;9.680;2023-02-26T08:39:45;2.30;;;2.10;;
297;SDS011;133;49.626;9.680;2023-02-26T08:42:11;2.33;;;1.97;;
297;SDS011;133;49.626;9.680;2023-02-26T08:44:40;1.93;;;1.83;;
297;SDS011;133;49.626;9.680;2023-02-26T08:47:06;2.07;;;1.93;;
297;SDS011;133;49.626;9.680;2023-02-26T08:49:32;2.97;;;1.73;;
297;SDS011;133;49.626;9.680;2023-02-26T08:51:57;1.90;;;1.80;;
297;SDS011;133;49.626;9.680;2023-02-26T08:54:23;3.07;;;1.80;;
297;SDS011;133;49.626;9.680;2023-02-26T08:56:49;2.20;;;1.70;;
297;SDS011;133;49.626;9.680;2023-02-26T08:59:14;1.50;;;1.40;;
297;SDS011;133;49.626;9.680;2023-02-26T09:01:40;1.93;;;1.83;;
297;SDS011;133;49.626;9.680;2023-02-26T09:04:06;1.93;;;1.77;;
297;SDS011;133;49.626;9.680;2023-02-26T09:06:31;2.70;;;2.33;;
297;SDS011;133;49.626;9.680;2023-02-26T09:08:57;1.60;;;1.50;;
297;SDS011;133;49.626;9.680;2023-02-26T09:11:23;1.67;;;1.57;;
297;SDS011;133;49.626;9.680;2023-02-26T09:13:48;1.60;;;1.57;;
297;SDS011;133;49.626;9.680;2023-02-26T09:16:14;1.73;;;1.63;;
297;SDS011;133;49.626;9.680;2023-02-26T09:18:40;1.90;;;1.50;;
297;SDS011;133;49.626;9.680;2023-02-26T09:21:06;1.60;;;1.50;;
297;SDS011;133;49.626;9.680;2023-02-26T09:23:31;1.90;;;1.80;;
297;SDS011;133;49.626;9.680;2023-02-26T09:25:57;1.63;;;1.53;;
297;SDS011;133;49.626;9.680;2023-02-26T09:28:23;1.50;;;1.40;;
297;SDS011;133;49.626;9.680;2023-02-26T09:30:52;1.60;;;1.50;;
297;SDS011;133;49.626;9.680;2023-02-26T09:33:19;2.17;;;1.80;;
297;SDS011;133;49.626;9.680;2023-02-26T09:35:49;1.63;;;1.53;;
297;SDS011;133;49.626;9.680;2023-02-26T09:38:15;1.60;;;1.50;;
297;SDS011;133;49.626;9.680;2023-02-26T09:40:44;1.77;;;1.67;;
297;SDS011;133;49.626;9.680;2023-02-26T09:45:54;1.40;;;1.30;;
297;SDS011;133;49.626;9.680;2023-02-26T09:48:22;1.73;;;1.63;;
297;SDS011;133;49.626;9.680;2023-02-26T09:50:52;1.53;;;1.43;;
297;SDS011;133;49.626;9.680;2023-02-26T09:53:21;1.73;;;1.63;;
297;SDS011;133;49.626;9.680;2023-02-26T09:55:57;1.73;;;1.63;;
297;SDS011;133;49.626;9.680;2023-02-26T09:58:45;2.73;;;1.80;;
297;SDS011;133;49.626;9.680;2023-02-26T10:01:13;1.70;;;1.60;;
297;SDS011;133;49.626;9.680;2023-02-26T10:06:32;2.63;;;1.50;;
297;SDS011;133;49.626;9.680;2023-02-26T10:20:20;1.60;;;1.50;;
297;SDS011;133;49.626;9.680;2023-02-26T10:25:33;1.67;;;1.60;;
297;SDS011;133;49.626;9.680;2023-02-26T10:30:40;1.70;;;1.60;;
297;SDS011;133;49.626;9.680;2023-02-26T10:33:21;1.60;;;1.50;;
297;SDS011;133;49.626;9.680;2023-02-26T10:35:57;1.50;;;1.40;;
297;SDS011;133;49.626;9.680;2023-02-26T10:39:01;1.57;;;1.50;;
297;SDS011;133;49.626;9.680;2023-02-26T10:41:40;2.10;;;1.60;;
297;SDS011;133;49.626;9.680;2023-02-26T10:46:38;1.60;;;1.50;;
297;SDS011;133;49.626;9.680;2023-02-26T10:52:20;1.63;;;1.53;;
297;SDS011;133;49.626;9.680;2023-02-26T10:54:57;1.57;;;1.53;;
297;SDS011;133;49.626;9.680;2023-02-26T10:57:29;1.80;;;1.70;;
297;SDS011;133;49.626;9.680;2023-02-26T10:59:59;2.17;;;1.40;;
297;SDS011;133;49.626;9.680;2023-02-26T11:02:36;1.60;;;1.50;;
297;SDS011;133;49.626;9.680;2023-02-26T11:05:12;2.00;;;1.50;;
297;SDS011;133;49.626;9.680;2023-02-26T11:07:42;1.80;;;1.70;;
297;SDS011;133;49.626;9.680;2023-02-26T11:10:15;1.60;;;1.57;;
297;SDS011;133;49.626;9.680;2023-02-26T11:12:43;1.60;;;1.50;;
297;SDS011;133;49.626;9.680;2023-02-26T11:15:13;1.70;;;1.60;;
297;SDS011;133;49.626;9.680;2023-02-26T11:17:41;1.60;;;1.50;;
297;SDS011;133;49.626;9.680;2023-02-26T11:23:03;1.63;;;1.53;;
297;SDS011;133;49.626;9.680;2023-02-26T11:25:46;1.70;;;1.60;;
297;SDS011;133;49.626;9.680;2023-02-26T11:28:22;2.83;;;2.53;;
297;SDS011;133;49.626;9.680;2023-02-26T11:30:53;1.93;;;1.83;;
297;SDS011;133;49.626;9.680;2023-02-26T11:33:22;1.47;;;1.37;;
297;SDS011;133;49.626;9.680;2023-02-26T11:35:53;1.60;;;1.50;;
297;SDS011;133;49.626;9.680;2023-02-26T11:38:24;1.80;;;1.70;;
297;SDS011;133;49.626;9.680;2023-02-26T11:40:53;1.60;;;1.50;;
297;SDS011;133;49.626;9.680;2023-02-26T11:43:21;4.83;;;1.70;;
297;SDS011;133;49.626;9.680;2023-02-26T11:45:58;1.40;;;1.30;;
297;SDS011;133;49.626;9.680;2023-02-26T11:48:26;1.70;;;1.60;;
297;SDS011;133;49.626;9.680;2023-02-26T11:51:01;1.40;;;1.30;;
297;SDS011;133;49.626;9.680;2023-02-26T11:53:36;1.50;;;1.40;;
297;SDS011;133;49.626;9.680;2023-02-26T11:56:13;1.60;;;1.50;;
297;SDS011;133;49.626;9.680;2023-02-26T11:58:54;1.80;;;1.60;;
297;SDS011;133;49.626;9.680;2023-02-26T12:01:28;1.40;;;1.30;;
297;SDS011;133;49.626;9.680;2023-02-26T12:03:56;2.20;;;2.00;;
297;SDS011;133;49.626;9.680;2023-02-26T12:06:26;2.00;;;1.77;;
297;SDS011;133;49.626;9.680;2023-02-26T12:08:51;1.50;;;1.40;;
297;SDS011;133;49.626;9.680;2023-02-26T12:14:12;1.60;;;1.50;;
297;SDS011;133;49.626;9.680;2023-02-26T12:35:38;1.60;;;1.50;;
297;SDS011;133;49.626;9.680;2023-02-26T12:38:18;1.70;;;1.60;;
297;SDS011;133;49.626;9.680;2023-02-26T12:43:24;1.50;;;1.40;;
297;SDS011;133;49.626;9.680;2023-02-26T12:46:07;1.50;;;1.40;;
297;SDS011;133;49.626;9.680;2023-02-26T12:54:40;2.80;;;2.20;;
297;SDS011;133;49.626;9.680;2023-02-26T13:05:33;1.70;;;1.60;;
297;SDS011;133;49.626;9.680;2023-02-26T13:16:32;1.70;;;1.60;;
297;SDS011;133;49.626;9.680;2023-02-26T13:21:46;1.77;;;1.70;;
297;SDS011;133;49.626;9.680;2023-02-26T13:24:41;1.80;;;1.73;;
297;SDS011;133;49.626;9.680;2023-02-26T13:27:14;1.80;;;1.70;;
297;SDS011;133;49.626;9.680;2023-02-26T13:29:46;1.50;;;1.40;;
297;SDS011;133;49.626;9.680;2023-02-26T13:32:16;1.80;;;1.70;;
297;SDS011;133;49.626;9.680;2023-02-26T13:34:48;1.93;;;1.83;;
297;SDS011;133;49.626;9.680;2023-02-26T13:42:40;1.93;;;1.83;;
297;SDS011;133;49.626;9.680;2023-02-26T13:55:48;1.70;;;1.60;;
297;SDS011;133;49.626;9.680;2023-02-26T13:58:28;1.90;;;1.80;;
297;SDS011;133;49.626;9.680;2023-02-26T14:03:41;3.10;;;2.20;;
297;SDS011;133;49.626;9.680;2023-02-26T14:06:24;1.83;;;1.73;;
297;SDS011;133;49.626;9.680;2023-02-26T14:09:03;2.50;;;1.80;;
297;SDS011;133;49.626;9.680;2023-02-26T14:14:40;1.67;;;1.60;;
297;SDS011;133;49.626;9.680;2023-02-26T14:19:35;1.77;;;1.67;;
297;SDS011;133;49.626;9.680;2023-02-26T14:28:17;1.87;;;1.80;;
297;SDS011;133;49.626;9.680;2023-02-26T14:31:03;2.03;;;1.67;;
297;SDS011;133;49.626;9.680;2023-02-26T14:33:43;1.67;;;1.57;;
297;SDS011;133;49.626;9.680;2023-02-26T14:36:14;1.63;;;1.53;;
297;SDS011;133;49.626;9.680;2023-02-26T14:38:44;1.80;;;1.70;;
297;SDS011;133;49.626;9.680;2023-02-26T14:41:25;1.83;;;1.70;;
297;SDS011;133;49.626;9.680;2023-02-26T14:43:57;1.87;;;1.77;;
297;SDS011;133;49.626;9.680;2023-02-26T14:46:26;1.53;;;1.43;;
297;SDS011;133;49.626;9.680;2023-02-26T14:48:52;1.60;;;1.50;;
297;SDS011;133;49.626;9.680;2023-02-26T14:51:32;1.50;;;1.40;;
297;SDS011;133;49.626;9.680;2023-02-26T14:56:58;1.70;;;1.60;;
297;SDS011;133;49.626;9.680;2023-02-26T15:02:25;1.77;;;1.67;;
297;SDS011;133;49.626;9.680;2023-02-26T15:08:08;1.97;;;1.60;;
297;SDS011;133;49.626;9.680;2023-02-26T15:11:00;1.50;;;1.40;;
297;SDS011;133;49.626;9.680;2023-02-26T15:22:24;2.50;;;1.77;;
297;SDS011;133;49.626;9.680;2023-02-26T15:24:57;1.47;;;1.37;;
297;SDS011;133;49.626;9.680;2023-02-26T15:27:25;1.70;;;1.60;;
297;SDS011;133;49.626;9.680;2023-02-26T15:29:54;1.50;;;1.40;;
297;SDS011;133;49.626;9.680;2023-02-26T15:32:38;1.67;;;1.57;;
297;SDS011;133;49.626;9.680;2023-02-26T15:37:44;1.60;;;1.50;;
297;SDS011;133;49.626;9.680;2023-02-26T15:40:17;1.67;;;1.57;;
297;SDS011;133;49.626;9.680;2023-02-26T15:42:44;2.03;;;1.43;;
297;SDS011;133;49.626;9.680;2023-02-26T15:45:26;1.53;;;1.43;;
297;SDS011;133;49.626;9.680;2023-02-26T15:48:03;1.40;;;1.30;;
297;SDS011;133;49.626;9.680;2023-02-26T15:50:34;2.80;;;1.40;;
297;SDS011;133;49.626;9.680;2023-02-26T15:53:03;1.37;;;1.30;;
297;SDS011;133;49.626;9.680;2023-02-26T15:55:31;1.63;;;1.30;;
297;SDS011;133;49.626;9.680;2023-02-26T15:58:00;2.07;;;1.50;;
297;SDS011;133;49.626;9.680;2023-02-26T16:00:27;1.60;;;1.50;;
297;SDS011;133;49.626;9.680;2023-02-26T16:02:57;1.57;;;1.47;;
297;SDS011;133;49.626;9.680;2023-02-26T16:05:26;1.47;;;1.37;;
297;SDS011;133;49.626;9.680;2023-02-26T16:07:53;1.40;;;1.30;;
297;SDS011;133;49.626;9.680;2023-02-26T16:13:02;1.40;;;1.30;;
297;SDS011;133;49.626;9.680;2023-02-26T16:15:36;1.40;;;1.30;;
297;SDS011;133;49.626;9.680;2023-02-26T16:18:08;1.53;;;1.43;;
297;SDS011;133;49.626;9.680;2023-02-26T16:20:43;1.47;;;1.37;;
297;SDS011;133;49.626;9.680;2023-02-26T16:23:12;1.40;;;1.30;;
297;SDS011;133;49.626;9.680;2023-02-26T16:25:47;2.13;;;1.90;;
297;SDS011;133;49.626;9.680;2023-02-26T16:28:20;1.40;;;1.30;;
297;SDS011;133;49.626;9.680;2023-02-26T16:30:48;1.50;;;1.40;;
297;SDS011;133;49.626;9.680;2023-02-26T16:33:17;1.60;;;1.50;;
297;SDS011;133;49.626;9.680;2023-02-26T16:35:47;1.50;;;1.40;;
297;SDS011;133;49.626;9.680;2023-02-26T16:40:45;2.73;;;1.67;;
297;SDS011;133;49.626;9.680;2023-02-26T16:45:48;1.40;;;1.30;;
297;SDS011;133;49.626;9.680;2023-02-26T16:48:23;1.67;;;1.57;;
297;SDS011;133;49.626;9.680;2023-02-26T16:53:47;1.70;;;1.60;;
297;SDS011;133;49.626;9.680;2023-02-26T16:56:17;1.50;;;1.40;;
297;SDS011;133;49.626;9.680;2023-02-26T16:58:44;1.57;;;1.50;;
297;SDS011;133;49.626;9.680;2023-02-26T17:01:15;1.40;;;1.30;;
297;SDS011;133;49.626;9.680;2023-02-26T17:03:48;2.27;;;1.60;;
297;SDS011;133;49.626;9.680;2023-02-26T17:06:25;1.63;;;1.53;;
297;SDS011;133;49.626;9.680;2023-02-26T17:08:58;1.83;;;1.77;;
297;SDS011;133;49.626;9.680;2023-02-26T17:16:49;1.60;;;1.50;;
297;SDS011;133;49.626;9.680;2023-02-26T17:19:16;1.50;;;1.40;;
297;SDS011;133;49.626;9.680;2023-02-26T17:21:43;1.77;;;1.50;;
297;SDS011;133;49.626;9.680;2023-02-26T17:24:15;1.87;;;1.60;;
297;SDS011;133;49.626;9.680;2023-02-26T17:26:47;1.87;;;1.80;;
297;SDS011;133;49.626;9.680;2023-02-26T17:29:18;2.30;;;1.67;;
297;SDS011;133;49.626;9.680;2023-02-26T17:31:47;1.57;;;1.40;;
297;SDS011;133;49.626;9.680;2023-02-26T17:34:13;1.60;;;1.50;;
297;SDS011;133;49.626;9.680;2023-02-26T17:36:39;1.73;;;1.70;;
297;SDS011;133;49.626;9.680;2023-02-26T17:39:05;1.43;;;1.40;;
297;SDS011;133;49.626;9.680;2023-02-26T17:41:31;1.70;;;1.60;;
297;SDS011;133;49.626;9.680;2023-02-26T17:43:58;2.10;;;1.67;;
297;SDS011;133;49.626;9.680;2023-02-26T17:46:24;1.60;;;1.50;;
297;SDS011;133;49.626;9.680;2023-02-26T17:48:49;1.90;;;1.80;;
297;SDS011;133;49.626;9.680;2023-02-26T17:51:15;1.73;;;1.63;;
297;SDS011;133;49.626;9.680;2023-02-26T17:53:40;2.53;;;1.60;;
297;SDS011;133;49.626;9.680;2023-02-26T17:56:11;1.40;;;1.30;;
297;SDS011;133;49.626;9.680;2023-02-26T17:58:41;2.20;;;1.40;;
297;SDS011;133;49.626;9.680;2023-02-26T18:01:08;2.43;;;1.43;;
297;SDS011;133;49.626;9.680;2023-02-26T18:03:35;1.53;;;1.43;;
297;SDS011;133;49.626;9.680;2023-02-26T18:06:00;1.30;;;1.20;;
297;SDS011;133;49.626;9.680;2023-02-26T18:08:30;1.43;;;1.33;;
297;SDS011;133;49.626;9.680;2023-02-26T18:10:58;1.40;;;1.30;;
297;SDS011;133;49.626;9.680;2023-02-26T18:13:25;1.50;;;1.40;;
297;SDS011;133;49.626;9.680;2023-02-26T18:15:52;1.43;;;1.37;;
297;SDS011;133;49.626;9.680;2023-02-26T18:18:20;1.40;;;1.30;;
297;SDS011;133;49.626;9.680;2023-02-26T18:20:47;1.40;;;1.30;;
297;SDS011;133;49.626;9.680;2023-02-26T18:23:14;1.43;;;1.33;;
297;SDS011;133;49.626;9.680;2023-02-26T18:25:41;1.37;;;1.27;;
297;SDS011;133;49.626;9.680;2023-02-26T18:28:12;1.43;;;1.33;;
297;SDS011;133;49.626;9.680;2023-02-26T18:30:49;1.40;;;1.30;;
297;SDS011;133;49.626;9.680;2023-02-26T18:33:15;1.30;;;1.20;;
297;SDS011;133;49.626;9.680;2023-02-26T18:35:41;2.07;;;1.50;;
297;SDS011;133;49.626;9.680;2023-02-26T18:38:15;1.97;;;1.70;;
297;SDS011;133;49.626;9.680;2023-02-26T18:40:42;1.40;;;1.30;;
297;SDS011;133;49.626;9.680;2023-02-26T18:43:09;1.70;;;1.40;;
297;SDS011;133;49.626;9.680;2023-02-26T18:45:46;1.73;;;1.63;;
297;SDS011;133;49.626;9.680;2023-02-26T18:48:14;1.53;;;1.43;;
297;SDS011;133;49.626;9.680;2023-02-26T18:50:42;1.67;;;1.60;;
297;SDS011;133;49.626;9.680;2023-02-26T18:53:08;1.70;;;1.60;;
297;SDS011;133;49.626;9.680;2023-02-26T18:55:34;2.60;;;2.40;;
297;SDS011;133;49.626;9.680;2023-02-26T18:58:00;1.77;;;1.57;;
297;SDS011;133;49.626;9.680;2023-02-26T19:00:26;2.27;;;1.70;;
297;SDS011;133;49.626;9.680;2023-02-26T19:02:53;1.90;;;1.83;;
297;SDS011;133;49.626;9.680;2023-02-26T19:05:19;1.60;;;1.50;;
297;SDS011;133;49.626;9.680;2023-02-26T19:07:47;2.20;;;1.60;;
297;SDS011;133;49.626;9.680;2023-02-26T19:10:15;1.63;;;1.53;;
297;SDS011;133;49.626;9.680;2023-02-26T19:12:41;2.00;;;1.90;;
297;SDS011;133;49.626;9.680;2023-02-26T19:15:07;1.80;;;1.70;;
297;SDS011;133;49.626;9.680;2023-02-26T19:17:35;1.93;;;1.77;;